sensor_id;sensor_type;location;lat;lon;timestamp;pressure;altitude;pressure_sealevel;temperature;humidity
61674;BME280;47573;43.832;5.974;2022-12-07T00:04:24;94816.84;;;21.06;72.53
61674;BME280;47573;43.832;5.974;2022-12-07T00:09:24;94813.88;;;21.08;72.19
61674;BME280;47573;43.832;5.974;2022-12-07T00:14:26;94803.03;;;21.08;71.89
61674;BME280;47573;43.832;5.974;2022-12-07T00:19:27;94812.56;;;21.10;72.06
61674;BME280;47573;43.832;5.974;2022-12-07T00:24:27;94800.88;;;21.10;72.01
61674;BME280;47573;43.832;5.974;2022-12-07T00:29:29;94797.59;;;21.08;71.90
61674;BME280;47573;43.832;5.974;2022-12-07T00:34:29;94794.63;;;21.09;72.34
61674;BME280;47573;43.832;5.974;2022-12-07T00:39:30;94791.69;;;21.11;71.64
61674;BME280;47573;43.832;5.974;2022-12-07T00:44:32;94787.06;;;21.11;71.62
61674;BME280;47573;43.832;5.974;2022-12-07T00:49:32;94779.66;;;21.07;71.85
61674;BME280;47573;43.832;5.974;2022-12-07T00:54:33;94771.84;;;21.10;72.03
61674;BME280;47573;43.832;5.974;2022-12-07T00:59:35;94771.59;;;21.12;71.48
61674;BME280;47573;43.832;5.974;2022-12-07T01:04:36;94763.50;;;21.00;70.67
61674;BME280;47573;43.832;5.974;2022-12-07T01:09:36;94768.69;;;21.02;71.27
61674;BME280;47573;43.832;5.974;2022-12-07T01:14:38;94771.19;;;21.03;71.01
61674;BME280;47573;43.832;5.974;2022-12-07T01:19:39;94758.69;;;21.02;71.76
61674;BME280;47573;43.832;5.974;2022-12-07T01:24:39;94760.75;;;21.12;71.12
61674;BME280;47573;43.832;5.974;2022-12-07T01:29:41;94756.50;;;20.88;71.10
61674;BME280;47573;43.832;5.974;2022-12-07T01:34:41;94751.69;;;20.78;70.88
61674;BME280;47573;43.832;5.974;2022-12-07T01:39:42;94749.94;;;20.72;71.30
61674;BME280;47573;43.832;5.974;2022-12-07T01:50:25;94746.06;;;20.68;71.20
61674;BME280;47573;43.832;5.974;2022-12-07T01:55:27;94741.50;;;20.57;71.13
61674;BME280;47573;43.832;5.974;2022-12-07T02:00:27;94730.25;;;20.48;71.33
61674;BME280;47573;43.832;5.974;2022-12-07T02:05:30;94723.03;;;20.42;71.05
61674;BME280;47573;43.832;5.974;2022-12-07T02:10:32;94720.25;;;20.37;70.84
61674;BME280;47573;43.832;5.974;2022-12-07T02:15:41;94723.41;;;20.34;70.77
61674;BME280;47573;43.832;5.974;2022-12-07T02:20:51;94718.13;;;20.39;71.05
61674;BME280;47573;43.832;5.974;2022-12-07T02:26:23;94708.25;;;20.33;71.02
61674;BME280;47573;43.832;5.974;2022-12-07T02:31:36;94705.41;;;20.28;70.60
61674;BME280;47573;43.832;5.974;2022-12-07T02:36:41;94699.91;;;20.23;70.63
61674;BME280;47573;43.832;5.974;2022-12-07T02:41:47;94693.06;;;20.21;70.71
61674;BME280;47573;43.832;5.974;2022-12-07T02:46:54;94690.78;;;20.18;70.18
61674;BME280;47573;43.832;5.974;2022-12-07T02:51:57;94695.88;;;20.14;70.05
61674;BME280;47573;43.832;5.974;2022-12-07T02:57:04;94685.50;;;20.11;70.49
61674;BME280;47573;43.832;5.974;2022-12-07T03:02:20;94688.13;;;20.06;70.39
61674;BME280;47573;43.832;5.974;2022-12-07T03:07:29;94683.69;;;20.00;69.87
61674;BME280;47573;43.832;5.974;2022-12-07T03:12:40;94681.44;;;19.97;70.04
61674;BME280;47573;43.832;5.974;2022-12-07T03:17:44;94682.38;;;19.91;70.14
61674;BME280;47573;43.832;5.974;2022-12-07T03:22:47;94670.38;;;19.87;70.06
61674;BME280;47573;43.832;5.974;2022-12-07T03:27:51;94670.28;;;19.82;69.87
61674;BME280;47573;43.832;5.974;2022-12-07T03:32:58;94675.09;;;19.80;69.80
61674;BME280;47573;43.832;5.974;2022-12-07T03:38:04;94682.63;;;19.78;69.54
61674;BME280;47573;43.832;5.974;2022-12-07T03:43:08;94676.06;;;19.74;69.68
61674;BME280;47573;43.832;5.974;2022-12-07T03:48:18;94683.59;;;19.72;69.47
61674;BME280;47573;43.832;5.974;2022-12-07T03:53:25;94677.00;;;19.68;69.50
61674;BME280;47573;43.832;5.974;2022-12-07T03:58:29;94659.59;;;19.64;69.38
61674;BME280;47573;43.832;5.974;2022-12-07T04:03:31;94661.72;;;19.62;69.50
61674;BME280;47573;43.832;5.974;2022-12-07T04:08:32;94663.25;;;19.58;69.48
61674;BME280;47573;43.832;5.974;2022-12-07T04:13:32;94652.09;;;19.54;69.48
61674;BME280;47573;43.832;5.974;2022-12-07T04:18:35;94655.63;;;19.55;69.43
61674;BME280;47573;43.832;5.974;2022-12-07T04:23:35;94648.53;;;19.54;69.10
61674;BME280;47573;43.832;5.974;2022-12-07T04:28:35;94651.16;;;19.49;69.15
61674;BME280;47573;43.832;5.974;2022-12-07T04:33:37;94644.53;;;19.45;69.26
61674;BME280;47573;43.832;5.974;2022-12-07T04:38:38;94647.97;;;19.40;69.28
61674;BME280;47573;43.832;5.974;2022-12-07T04:43:38;94654.69;;;19.38;69.04
61674;BME280;47573;43.832;5.974;2022-12-07T04:48:40;94653.50;;;19.34;69.30
61674;BME280;47573;43.832;5.974;2022-12-07T04:53:41;94654.44;;;19.27;69.09
61674;BME280;47573;43.832;5.974;2022-12-07T04:58:41;94651.59;;;19.22;69.22
61674;BME280;47573;43.832;5.974;2022-12-07T05:03:43;94661.81;;;19.20;69.22
61674;BME280;47573;43.832;5.974;2022-12-07T05:08:44;94661.25;;;19.18;69.24
61674;BME280;47573;43.832;5.974;2022-12-07T05:13:45;94653.00;;;19.13;69.40
61674;BME280;47573;43.832;5.974;2022-12-07T05:18:47;94646.41;;;19.09;69.48
61674;BME280;47573;43.832;5.974;2022-12-07T05:23:47;94643.09;;;19.07;69.08
61674;BME280;47573;43.832;5.974;2022-12-07T05:28:50;94639.81;;;19.05;69.28
61674;BME280;47573;43.832;5.974;2022-12-07T05:33:52;94638.63;;;19.01;69.29
61674;BME280;47573;43.832;5.974;2022-12-07T05:38:53;94643.94;;;18.96;69.37
61674;BME280;47573;43.832;5.974;2022-12-07T05:43:53;94654.19;;;18.94;69.33
61674;BME280;47573;43.832;5.974;2022-12-07T05:48:55;94647.59;;;18.90;69.34
61674;BME280;47573;43.832;5.974;2022-12-07T05:53:56;94650.16;;;18.85;69.23
61674;BME280;47573;43.832;5.974;2022-12-07T05:58:56;94639.78;;;18.82;69.26
61674;BME280;47573;43.832;5.974;2022-12-07T06:03:58;94639.78;;;18.82;69.35
61674;BME280;47573;43.832;5.974;2022-12-07T06:08:59;94642.97;;;18.79;69.05
61674;BME280;47573;43.832;5.974;2022-12-07T06:13:59;94636.16;;;18.77;69.00
61674;BME280;47573;43.832;5.974;2022-12-07T06:19:01;94647.78;;;18.77;68.97
61674;BME280;47573;43.832;5.974;2022-12-07T06:24:02;94648.72;;;18.71;69.04
61674;BME280;47573;43.832;5.974;2022-12-07T06:29:02;94637.56;;;18.68;69.04
61674;BME280;47573;43.832;5.974;2022-12-07T06:34:06;94637.78;;;18.66;68.84
61674;BME280;47573;43.832;5.974;2022-12-07T06:39:07;94626.84;;;18.61;68.95
61674;BME280;47573;43.832;5.974;2022-12-07T06:44:08;94631.06;;;18.57;69.02
61674;BME280;47573;43.832;5.974;2022-12-07T06:49:10;94626.13;;;18.54;68.97
61674;BME280;47573;43.832;5.974;2022-12-07T06:54:12;94628.81;;;18.54;68.89
61674;BME280;47573;43.832;5.974;2022-12-07T06:59:12;94619.38;;;18.45;69.15
61674;BME280;47573;43.832;5.974;2022-12-07T07:04:14;94621.03;;;18.46;69.17
61674;BME280;47573;43.832;5.974;2022-12-07T07:09:15;94622.91;;;18.45;68.74
61674;BME280;47573;43.832;5.974;2022-12-07T07:14:16;94621.94;;;18.40;69.11
61674;BME280;47573;43.832;5.974;2022-12-07T07:19:18;94623.81;;;18.39;69.34
61674;BME280;47573;43.832;5.974;2022-12-07T07:24:18;94625.19;;;18.49;68.66
61674;BME280;47573;43.832;5.974;2022-12-07T07:29:19;94627.50;;;18.45;68.95
61674;BME280;47573;43.832;5.974;2022-12-07T07:34:20;94635.16;;;18.48;68.88
61674;BME280;47573;43.832;5.974;2022-12-07T07:39:21;94639.03;;;18.52;69.01
61674;BME280;47573;43.832;5.974;2022-12-07T07:44:21;94644.34;;;18.59;68.43
61674;BME280;47573;43.832;5.974;2022-12-07T07:49:23;94645.97;;;18.60;68.73
61674;BME280;47573;43.832;5.974;2022-12-07T07:54:24;94658.38;;;18.67;68.30
61674;BME280;47573;43.832;5.974;2022-12-07T07:59:24;94655.78;;;18.72;68.49
61674;BME280;47573;43.832;5.974;2022-12-07T08:04:26;94664.47;;;18.74;68.04
61674;BME280;47573;43.832;5.974;2022-12-07T08:09:27;94663.09;;;18.83;67.99
61674;BME280;47573;43.832;5.974;2022-12-07T08:14:27;94660.53;;;18.88;67.33
61674;BME280;47573;43.832;5.974;2022-12-07T08:19:29;94655.13;;;18.88;67.30
61674;BME280;47573;43.832;5.974;2022-12-07T08:24:32;94663.34;;;18.93;67.12
61674;BME280;47573;43.832;5.974;2022-12-07T08:29:33;94667.22;;;18.97;66.89
61674;BME280;47573;43.832;5.974;2022-12-07T08:34:35;94675.34;;;18.97;66.85
61674;BME280;47573;43.832;5.974;2022-12-07T08:39:35;94680.63;;;19.04;67.05
61674;BME280;47573;43.832;5.974;2022-12-07T08:44:35;94691.34;;;19.10;66.66
61674;BME280;47573;43.832;5.974;2022-12-07T08:49:39;94684.56;;;19.19;66.32
61674;BME280;47573;43.832;5.974;2022-12-07T08:54:42;94688.53;;;19.17;66.39
61674;BME280;47573;43.832;5.974;2022-12-07T08:59:42;94700.44;;;19.27;66.34
61674;BME280;47573;43.832;5.974;2022-12-07T09:04:44;94691.84;;;19.31;66.11
61674;BME280;47573;43.832;5.974;2022-12-07T09:09:44;94697.41;;;19.36;65.79
61674;BME280;47573;43.832;5.974;2022-12-07T09:14:45;94698.22;;;19.48;65.36
61674;BME280;47573;43.832;5.974;2022-12-07T09:19:47;94699.50;;;19.45;65.55
61674;BME280;47573;43.832;5.974;2022-12-07T09:24:47;94710.56;;;19.55;65.35
61674;BME280;47573;43.832;5.974;2022-12-07T09:29:48;94706.00;;;19.56;65.20
61674;BME280;47573;43.832;5.974;2022-12-07T09:34:50;94716.38;;;19.59;65.03
61674;BME280;47573;43.832;5.974;2022-12-07T09:39:50;94727.41;;;19.69;64.81
61674;BME280;47573;43.832;5.974;2022-12-07T09:44:51;94717.25;;;19.76;64.77
61674;BME280;47573;43.832;5.974;2022-12-07T09:49:54;94713.03;;;19.80;64.66
61674;BME280;47573;43.832;5.974;2022-12-07T09:54:55;94703.84;;;19.81;64.48
61674;BME280;47573;43.832;5.974;2022-12-07T09:59:56;94709.59;;;19.84;64.40
61674;BME280;47573;43.832;5.974;2022-12-07T10:05:01;94717.03;;;19.89;64.37
61674;BME280;47573;43.832;5.974;2022-12-07T10:10:03;94714.44;;;19.94;64.38
61674;BME280;47573;43.832;5.974;2022-12-07T10:15:04;94704.06;;;19.91;64.43
61674;BME280;47573;43.832;5.974;2022-12-07T10:20:17;94706.41;;;19.99;64.57
61674;BME280;47573;43.832;5.974;2022-12-07T10:25:19;94704.28;;;20.01;64.30
61674;BME280;47573;43.832;5.974;2022-12-07T10:30:21;94693.94;;;19.98;64.38
61674;BME280;47573;43.832;5.974;2022-12-07T10:35:25;94689.47;;;19.92;62.62
61674;BME280;47573;43.832;5.974;2022-12-07T10:40:33;94679.34;;;19.76;52.64
61674;BME280;47573;43.832;5.974;2022-12-07T10:45:35;94678.56;;;19.52;52.49
61674;BME280;47573;43.832;5.974;2022-12-07T10:50:54;94672.56;;;19.39;53.57
61674;BME280;47573;43.832;5.974;2022-12-07T10:56:21;94670.44;;;19.41;50.63
61674;BME280;47573;43.832;5.974;2022-12-07T11:01:29;94656.19;;;19.45;50.30
61674;BME280;47573;43.832;5.974;2022-12-07T11:06:36;94646.81;;;19.36;48.97
61674;BME280;47573;43.832;5.974;2022-12-07T11:11:44;94647.16;;;19.40;48.24
61674;BME280;47573;43.832;5.974;2022-12-07T11:16:55;94646.16;;;19.69;56.51
61674;BME280;47573;43.832;5.974;2022-12-07T11:21:58;94643.78;;;19.84;56.47
61674;BME280;47573;43.832;5.974;2022-12-07T11:27:04;94644.47;;;19.91;56.72
61674;BME280;47573;43.832;5.974;2022-12-07T11:32:14;94626.88;;;19.54;52.96
61674;BME280;47573;43.832;5.974;2022-12-07T11:37:20;94622.13;;;19.84;56.19
61674;BME280;47573;43.832;5.974;2022-12-07T11:42:24;94627.25;;;19.97;56.57
61674;BME280;47573;43.832;5.974;2022-12-07T11:47:30;94625.81;;;20.06;56.66
61674;BME280;47573;43.832;5.974;2022-12-07T11:52:43;94619.09;;;20.09;57.04
61674;BME280;47573;43.832;5.974;2022-12-07T11:57:46;94623.19;;;20.11;57.22
61674;BME280;47573;43.832;5.974;2022-12-07T12:02:55;94623.53;;;20.15;57.73
61674;BME280;47573;43.832;5.974;2022-12-07T12:08:05;94629.28;;;20.18;57.64
61674;BME280;47573;43.832;5.974;2022-12-07T12:13:25;94615.66;;;20.13;58.14
61674;BME280;47573;43.832;5.974;2022-12-07T12:18:39;94616.00;;;20.17;58.39
61674;BME280;47573;43.832;5.974;2022-12-07T12:23:55;94615.16;;;20.16;58.62
61674;BME280;47573;43.832;5.974;2022-12-07T12:28:59;94607.28;;;20.15;58.95
61674;BME280;47573;43.832;5.974;2022-12-07T12:34:10;94595.94;;;20.18;58.93
61674;BME280;47573;43.832;5.974;2022-12-07T12:39:26;94597.28;;;20.15;59.13
61674;BME280;47573;43.832;5.974;2022-12-07T12:50:20;94587.00;;;20.17;59.50
61674;BME280;47573;43.832;5.974;2022-12-07T12:55:29;94585.09;;;20.18;59.51
61674;BME280;47573;43.832;5.974;2022-12-07T13:00:44;94574.25;;;20.18;59.69
61674;BME280;47573;43.832;5.974;2022-12-07T13:05:45;94571.78;;;20.16;60.08
61674;BME280;47573;43.832;5.974;2022-12-07T13:10:48;94555.06;;;20.19;59.77
61674;BME280;47573;43.832;5.974;2022-12-07T13:15:50;94553.91;;;20.15;59.98
61674;BME280;47573;43.832;5.974;2022-12-07T13:20:55;94553.41;;;20.18;60.27
61674;BME280;47573;43.832;5.974;2022-12-07T13:26:02;94542.81;;;20.17;60.35
61674;BME280;47573;43.832;5.974;2022-12-07T13:31:13;94537.13;;;20.18;60.38
61674;BME280;47573;43.832;5.974;2022-12-07T13:36:19;94531.97;;;20.17;60.67
61674;BME280;47573;43.832;5.974;2022-12-07T13:41:23;94526.28;;;20.18;60.77
61674;BME280;47573;43.832;5.974;2022-12-07T13:46:26;94527.97;;;20.19;60.68
61674;BME280;47573;43.832;5.974;2022-12-07T13:51:34;94533.16;;;20.21;60.76
61674;BME280;47573;43.832;5.974;2022-12-07T13:56:38;94531.72;;;20.18;60.98
61674;BME280;47573;43.832;5.974;2022-12-07T14:01:39;94520.88;;;20.18;61.05
61674;BME280;47573;43.832;5.974;2022-12-07T14:06:47;94539.53;;;20.15;61.16
61674;BME280;47573;43.832;5.974;2022-12-07T14:11:51;94532.69;;;20.12;61.34
61674;BME280;47573;43.832;5.974;2022-12-07T14:16:57;94536.47;;;20.11;61.27
61674;BME280;47573;43.832;5.974;2022-12-07T14:22:06;94541.28;;;20.09;61.63
61674;BME280;47573;43.832;5.974;2022-12-07T14:27:17;94541.22;;;20.04;61.72
61674;BME280;47573;43.832;5.974;2022-12-07T14:32:20;94536.38;;;20.06;61.74
61674;BME280;47573;43.832;5.974;2022-12-07T14:37:21;94540.91;;;20.00;61.88
61674;BME280;47573;43.832;5.974;2022-12-07T14:42:26;94542.56;;;20.18;61.54
61674;BME280;47573;43.832;5.974;2022-12-07T14:47:27;94528.81;;;20.36;61.19
61674;BME280;47573;43.832;5.974;2022-12-07T14:52:29;94534.50;;;20.51;61.10
61674;BME280;47573;43.832;5.974;2022-12-07T14:57:31;94525.53;;;20.51;61.84
61674;BME280;47573;43.832;5.974;2022-12-07T15:02:31;94530.16;;;20.50;61.72
61674;BME280;47573;43.832;5.974;2022-12-07T15:07:31;94531.19;;;20.49;62.36
61674;BME280;47573;43.832;5.974;2022-12-07T15:12:33;94542.63;;;20.51;62.42
61674;BME280;47573;43.832;5.974;2022-12-07T15:17:34;94542.16;;;20.54;62.62
61674;BME280;47573;43.832;5.974;2022-12-07T15:22:34;94531.53;;;20.53;62.98
61674;BME280;47573;43.832;5.974;2022-12-07T15:27:36;94528.81;;;20.53;63.34
61674;BME280;47573;43.832;5.974;2022-12-07T15:32:37;94539.84;;;20.63;63.07
61674;BME280;47573;43.832;5.974;2022-12-07T15:37:37;94524.88;;;20.60;63.47
61674;BME280;47573;43.832;5.974;2022-12-07T15:42:39;94515.81;;;20.71;63.40
61674;BME280;47573;43.832;5.974;2022-12-07T15:47:41;94531.59;;;20.74;63.11
61674;BME280;47573;43.832;5.974;2022-12-07T15:52:43;94524.03;;;20.76;63.53
61674;BME280;47573;43.832;5.974;2022-12-07T15:57:45;94527.25;;;20.73;63.34
61674;BME280;47573;43.832;5.974;2022-12-07T16:02:45;94518.63;;;20.76;63.17
61674;BME280;47573;43.832;5.974;2022-12-07T16:07:45;94528.31;;;20.72;63.80
61674;BME280;47573;43.832;5.974;2022-12-07T16:12:47;94526.91;;;20.70;64.30
61674;BME280;47573;43.832;5.974;2022-12-07T16:17:48;94535.06;;;20.70;63.85
61674;BME280;47573;43.832;5.974;2022-12-07T16:22:51;94531.59;;;20.74;64.05
61674;BME280;47573;43.832;5.974;2022-12-07T16:27:53;94519.94;;;20.74;64.28
61674;BME280;47573;43.832;5.974;2022-12-07T16:32:53;94519.28;;;20.83;64.40
61674;BME280;47573;43.832;5.974;2022-12-07T16:37:54;94523.03;;;20.82;64.81
61674;BME280;47573;43.832;5.974;2022-12-07T16:42:56;94540.97;;;20.83;65.08
61674;BME280;47573;43.832;5.974;2022-12-07T16:47:56;94537.19;;;20.84;65.27
61674;BME280;47573;43.832;5.974;2022-12-07T16:52:57;94540.47;;;20.87;65.58
61674;BME280;47573;43.832;5.974;2022-12-07T16:57:58;94538.84;;;20.86;65.71
61674;BME280;47573;43.832;5.974;2022-12-07T17:02:59;94539.41;;;20.88;65.85
61674;BME280;47573;43.832;5.974;2022-12-07T17:08:01;94535.34;;;20.90;65.74
61674;BME280;47573;43.832;5.974;2022-12-07T17:13:03;94532.41;;;20.92;65.68
61674;BME280;47573;43.832;5.974;2022-12-07T17:18:04;94538.84;;;20.86;66.11
61674;BME280;47573;43.832;5.974;2022-12-07T17:23:04;94543.28;;;20.92;66.26
61674;BME280;47573;43.832;5.974;2022-12-07T17:28:06;94538.66;;;20.92;66.51
61674;BME280;47573;43.832;5.974;2022-12-07T17:33:07;94543.28;;;20.92;66.56
61674;BME280;47573;43.832;5.974;2022-12-07T17:38:07;94543.84;;;20.94;66.08
61674;BME280;47573;43.832;5.974;2022-12-07T17:43:09;94542.75;;;20.95;66.61
61674;BME280;47573;43.832;5.974;2022-12-07T17:48:09;94535.19;;;20.97;66.96
61674;BME280;47573;43.832;5.974;2022-12-07T17:53:11;94544.16;;;20.97;67.15
61674;BME280;47573;43.832;5.974;2022-12-07T17:58:14;94543.91;;;20.99;66.81
61674;BME280;47573;43.832;5.974;2022-12-07T18:03:14;94548.84;;;21.02;67.27
61674;BME280;47573;43.832;5.974;2022-12-07T18:08:15;94549.91;;;21.01;67.56
61674;BME280;47573;43.832;5.974;2022-12-07T18:13:17;94554.28;;;21.18;66.99
61674;BME280;47573;43.832;5.974;2022-12-07T18:18:17;94559.72;;;21.18;66.88
61674;BME280;47573;43.832;5.974;2022-12-07T18:23:18;94558.06;;;21.17;66.85
61674;BME280;47573;43.832;5.974;2022-12-07T18:28:20;94552.97;;;21.21;67.26
61674;BME280;47573;43.832;5.974;2022-12-07T18:33:20;94568.25;;;21.27;67.10
61674;BME280;47573;43.832;5.974;2022-12-07T18:38:21;94570.63;;;21.23;67.20
61674;BME280;47573;43.832;5.974;2022-12-07T18:43:23;94570.88;;;21.22;67.38
61674;BME280;47573;43.832;5.974;2022-12-07T18:48:23;94573.03;;;21.20;67.46
61674;BME280;47573;43.832;5.974;2022-12-07T18:53:24;94562.16;;;21.20;67.80
61674;BME280;47573;43.832;5.974;2022-12-07T18:58:26;94575.00;;;21.24;67.61
61674;BME280;47573;43.832;5.974;2022-12-07T19:03:26;94573.84;;;21.20;67.97
61674;BME280;47573;43.832;5.974;2022-12-07T19:08:27;94574.16;;;21.24;67.67
61674;BME280;47573;43.832;5.974;2022-12-07T19:13:29;94582.88;;;21.26;67.63
61674;BME280;47573;43.832;5.974;2022-12-07T19:18:32;94593.25;;;21.29;67.96
61674;BME280;47573;43.832;5.974;2022-12-07T19:23:33;94587.75;;;21.24;68.03
61674;BME280;47573;43.832;5.974;2022-12-07T19:28:34;94585.84;;;21.24;68.24
61674;BME280;47573;43.832;5.974;2022-12-07T19:33:35;94587.81;;;21.29;68.26
61674;BME280;47573;43.832;5.974;2022-12-07T19:38:35;94575.31;;;21.28;68.14
61674;BME280;47573;43.832;5.974;2022-12-07T19:43:37;94579.94;;;21.27;68.36
61674;BME280;47573;43.832;5.974;2022-12-07T19:48:38;94585.94;;;21.29;68.22
61674;BME280;47573;43.832;5.974;2022-12-07T19:53:39;94584.03;;;21.30;68.80
61674;BME280;47573;43.832;5.974;2022-12-07T19:58:41;94572.69;;;21.33;68.68
61674;BME280;47573;43.832;5.974;2022-12-07T20:03:41;94580.81;;;21.33;68.68
61674;BME280;47573;43.832;5.974;2022-12-07T20:08:43;94577.59;;;21.36;68.41
61674;BME280;47573;43.832;5.974;2022-12-07T20:13:45;94583.84;;;21.36;68.56
61674;BME280;47573;43.832;5.974;2022-12-07T20:18:46;94579.25;;;21.37;68.47
61674;BME280;47573;43.832;5.974;2022-12-07T20:23:47;94578.69;;;21.35;68.89
61674;BME280;47573;43.832;5.974;2022-12-07T20:28:49;94582.44;;;21.34;68.80
61674;BME280;47573;43.832;5.974;2022-12-07T20:33:50;94583.03;;;21.36;68.70
61674;BME280;47573;43.832;5.974;2022-12-07T20:38:50;94580.38;;;21.41;68.71
61674;BME280;47573;43.832;5.974;2022-12-07T20:43:52;94585.34;;;21.44;68.53
61674;BME280;47573;43.832;5.974;2022-12-07T20:48:53;94596.19;;;21.44;69.02
61674;BME280;47573;43.832;5.974;2022-12-07T20:53:54;94597.00;;;21.44;68.54
61674;BME280;47573;43.832;5.974;2022-12-07T20:58:57;94593.53;;;21.49;68.58
61674;BME280;47573;43.832;5.974;2022-12-07T21:04:00;94601.19;;;21.52;69.09
61674;BME280;47573;43.832;5.974;2022-12-07T21:09:02;94608.50;;;21.51;68.55
61674;BME280;47573;43.832;5.974;2022-12-07T21:14:04;94605.03;;;21.56;68.07
61674;BME280;47573;43.832;5.974;2022-12-07T21:19:04;94605.03;;;21.56;68.78
61674;BME280;47573;43.832;5.974;2022-12-07T21:24:06;94602.91;;;21.58;68.39
61674;BME280;47573;43.832;5.974;2022-12-07T21:29:08;94600.09;;;21.53;68.74
61674;BME280;47573;43.832;5.974;2022-12-07T21:34:09;94618.06;;;21.54;68.66
61674;BME280;47573;43.832;5.974;2022-12-07T21:39:09;94623.97;;;21.51;69.20
61674;BME280;47573;43.832;5.974;2022-12-07T21:44:11;94625.06;;;21.50;68.95
61674;BME280;47573;43.832;5.974;2022-12-07T21:49:13;94617.91;;;21.44;69.12
61674;BME280;47573;43.832;5.974;2022-12-07T21:54:13;94620.38;;;21.45;69.36
61674;BME280;47573;43.832;5.974;2022-12-07T21:59:16;94620.06;;;21.42;69.32
61674;BME280;47573;43.832;5.974;2022-12-07T22:04:18;94616.25;;;21.43;69.58
61674;BME280;47573;43.832;5.974;2022-12-07T22:09:19;94616.75;;;21.40;69.21
61674;BME280;47573;43.832;5.974;2022-12-07T22:14:21;94615.13;;;21.39;69.20
61674;BME280;47573;43.832;5.974;2022-12-07T22:19:22;94617.75;;;21.34;69.65
61674;BME280;47573;43.832;5.974;2022-12-07T22:24:22;94622.59;;;21.32;69.87
61674;BME280;47573;43.832;5.974;2022-12-07T22:29:25;94623.19;;;21.34;69.31
61674;BME280;47573;43.832;5.974;2022-12-07T22:34:25;94622.88;;;21.30;69.75
61674;BME280;47573;43.832;5.974;2022-12-07T22:39:26;94622.59;;;21.32;69.90
61674;BME280;47573;43.832;5.974;2022-12-07T22:44:28;94628.28;;;21.30;69.68
61674;BME280;47573;43.832;5.974;2022-12-07T22:49:29;94631.28;;;21.29;69.40
61674;BME280;47573;43.832;5.974;2022-12-07T22:54:29;94629.59;;;21.28;69.45
61674;BME280;47573;43.832;5.974;2022-12-07T22:59:31;94622.56;;;21.27;69.52
61674;BME280;47573;43.832;5.974;2022-12-07T23:04:32;94620.56;;;21.22;69.81
61674;BME280;47573;43.832;5.974;2022-12-07T23:09:32;94615.97;;;21.23;70.02
61674;BME280;47573;43.832;5.974;2022-12-07T23:14:35;94612.69;;;21.21;69.93
61674;BME280;47573;43.832;5.974;2022-12-07T23:19:35;94604.78;;;21.19;70.13
61674;BME280;47573;43.832;5.974;2022-12-07T23:24:36;94609.47;;;21.24;69.82
61674;BME280;47573;43.832;5.974;2022-12-07T23:29:38;94608.41;;;21.25;69.70
61674;BME280;47573;43.832;5.974;2022-12-07T23:34:38;94601.81;;;21.21;69.77
61674;BME280;47573;43.832;5.974;2022-12-07T23:39:39;94599.69;;;21.23;69.68
61674;BME280;47573;43.832;5.974;2022-12-07T23:44:41;94591.47;;;21.18;69.88
61674;BME280;47573;43.832;5.974;2022-12-07T23:49:41;94592.28;;;21.18;69.97
61674;BME280;47573;43.832;5.974;2022-12-07T23:54:42;94598.53;;;21.19;69.89
61674;BME280;47573;43.832;5.974;2022-12-07T23:59:44;94592.59;;;21.22;69.53
